This is the latest recevied weather packets stored in our database for station/object DH5DY-13. If no packets are shown the sender has not sent any weather packets the latest 10 day(s).
| Time | Temp. | Humidity | Pressure | Rain* | Wind** | Luminosity | Snow |
|---|---|---|---|---|---|---|---|
| 1777751367 | 17.78° C | 56% | 1013.7 hPa | 0 mm | - | 0 W/m² | - |
| 1777750158 | 18.33° C | 54% | 1013.7 hPa | 0 mm | - | 0 W/m² | - |
| 1777748948 | 19.44° C | 52% | 1013.7 hPa | 0 mm | - | 0 W/m² | - |
| 1777747741 | 19.44° C | 52% | 1013.8 hPa | 0 mm | - | 0 W/m² | - |
| 1777746532 | 20° C | 50% | 1013.7 hPa | 0 mm | - | 11 W/m² | - |
| 1777744117 | 21.67° C | 49% | 1014 hPa | 0 mm | - | 46 W/m² | - |
| 1777742911 | 22.78° C | 45% | 1014 hPa | 0 mm | - | 46 W/m² | - |
| 1777741703 | 23.89° C | 42% | 1013.9 hPa | 0 mm | - | 70 W/m² | - |
| 1777740496 | 25° C | 39% | 1014 hPa | 0 mm | - | 243 W/m² | - |
| 1777739292 | 25° C | 39% | 1014.2 hPa | 0 mm | - | 234 W/m² | - |
| 1777738086 | 25° C | 38% | 1014.5 hPa | 0 mm | - | 285 W/m² | - |
| 1777735674 | 24.44° C | 38% | 1014.9 hPa | 0 mm | - | 281 W/m² | - |
| 1777734470 | 24.44° C | 39% | 1015.1 hPa | 0 mm | - | 265 W/m² | - |
| 1777732059 | 25.56° C | 37% | 1015.7 hPa | 0 mm | - | 513 W/m² | - |
| 1777675399 | 8.33° C | 75% | 1021.8 hPa | 0 mm | - | 0 W/m² | - |
| 1777671787 | 10° C | 70% | 1022 hPa | 0 mm | - | 0 W/m² | - |
| 1777670577 | 10.56° C | 67% | 1021.9 hPa | 0 mm | - | 0 W/m² | - |
| 1777668164 | 12.22° C | 61% | 1022 hPa | 0 mm | - | 0 W/m² | - |
| 1777666959 | 13.33° C | 56% | 1022 hPa | 0 mm | - | 0 W/m² | - |
| 1777665755 | 14.44° C | 52% | 1022.1 hPa | 0 mm | - | 0 W/m² | - |
| 1777664544 | 15.56° C | 48% | 1022 hPa | 0 mm | - | 0 W/m² | - |
| 1777663340 | 16.11° C | 45% | 1022.1 hPa | 0 mm | - | 0 W/m² | - |
| 1777662134 | 16.67° C | 44% | 1022.1 hPa | 0 mm | - | 0 W/m² | - |
| 1777660927 | 18.33° C | 42% | 1022 hPa | 0 mm | - | 7 W/m² | - |
| 1777659722 | 20.56° C | 40% | 1021.8 hPa | 0 mm | - | 16 W/m² | - |
* Rain latest hour (hover to see other rain measurements)
** Current wind speed in m/s (hover to see current wind gust speed)